createdAt,value
2022-12-25T00:01:58.000Z,277.88
2022-12-25T00:03:25.000Z,277.89
2022-12-25T00:05:31.000Z,277.91
2022-12-25T00:06:57.000Z,277.89
2022-12-25T00:09:04.000Z,277.93
2022-12-25T00:10:30.000Z,277.93
2022-12-25T00:12:36.000Z,277.97
2022-12-25T00:14:03.000Z,277.99
2022-12-25T00:16:09.000Z,277.97
2022-12-25T00:17:35.000Z,277.96
2022-12-25T00:19:42.000Z,277.97
2022-12-25T00:21:08.000Z,277.96
2022-12-25T00:23:14.000Z,277.99
2022-12-25T00:24:41.000Z,277.96
2022-12-25T00:26:47.000Z,277.99
2022-12-25T00:28:13.000Z,277.99
2022-12-25T00:30:19.000Z,278.03
2022-12-25T00:31:46.000Z,278.02
2022-12-25T00:33:52.000Z,278.03
2022-12-25T00:35:19.000Z,278.06
2022-12-25T00:37:25.000Z,278.09
2022-12-25T00:40:16.000Z,278.1
2022-12-25T00:41:42.000Z,278.17
2022-12-25T00:43:48.000Z,278.17
2022-12-25T00:45:15.000Z,278.25
2022-12-25T00:47:21.000Z,278.28
2022-12-25T00:48:48.000Z,278.29
2022-12-25T00:50:54.000Z,278.36
2022-12-25T00:52:21.000Z,278.44
2022-12-25T00:54:27.000Z,278.47
2022-12-25T00:55:53.000Z,278.53
2022-12-25T00:58:00.000Z,278.54
2022-12-25T00:59:26.000Z,278.54
2022-12-25T01:01:32.000Z,278.51
2022-12-25T01:02:59.000Z,278.47
2022-12-25T01:05:06.000Z,278.47
2022-12-25T01:06:32.000Z,278.44
2022-12-25T01:08:38.000Z,278.44
2022-12-25T01:10:05.000Z,278.46
2022-12-25T01:12:11.000Z,278.44
2022-12-25T01:13:38.000Z,278.43
2022-12-25T01:15:44.000Z,278.43
2022-12-25T01:18:35.000Z,278.44
2022-12-25T01:20:02.000Z,278.51
2022-12-25T01:22:08.000Z,278.53
2022-12-25T01:23:34.000Z,278.51
2022-12-25T01:25:40.000Z,278.53
2022-12-25T01:27:07.000Z,278.54
2022-12-25T01:29:13.000Z,278.53
2022-12-25T01:30:40.000Z,278.57
2022-12-25T01:32:46.000Z,278.58
2022-12-25T01:34:13.000Z,278.61
2022-12-25T01:36:19.000Z,278.62
2022-12-25T01:37:45.000Z,278.6
2022-12-25T01:39:51.000Z,278.65
2022-12-25T01:41:18.000Z,278.64
2022-12-25T01:43:24.000Z,278.69
2022-12-25T01:44:50.000Z,278.72
2022-12-25T01:46:57.000Z,278.74
2022-12-25T01:48:23.000Z,278.76
2022-12-25T01:50:29.000Z,278.76
2022-12-25T01:51:56.000Z,278.75
2022-12-25T01:54:02.000Z,278.76
2022-12-25T01:56:53.000Z,278.82
2022-12-25T01:58:20.000Z,278.82
2022-12-25T02:00:26.000Z,278.81
2022-12-25T02:01:52.000Z,278.81
2022-12-25T02:03:59.000Z,278.81
2022-12-25T02:05:26.000Z,278.78
2022-12-25T02:07:32.000Z,278.78
2022-12-25T02:08:59.000Z,278.78
2022-12-25T02:11:05.000Z,278.81
2022-12-25T02:12:32.000Z,278.78
2022-12-25T02:14:38.000Z,278.81
2022-12-25T02:16:04.000Z,278.79
2022-12-25T02:18:10.000Z,278.82
2022-12-25T02:19:37.000Z,278.83
2022-12-25T02:21:43.000Z,278.82
2022-12-25T02:23:10.000Z,278.82
2022-12-25T02:25:16.000Z,278.83
2022-12-25T02:26:42.000Z,278.83
2022-12-25T02:28:48.000Z,278.82
2022-12-25T02:30:15.000Z,278.82
2022-12-25T02:32:21.000Z,278.83
2022-12-25T02:35:12.000Z,278.88
2022-12-25T02:36:39.000Z,278.85
2022-12-25T02:38:45.000Z,278.83
2022-12-25T02:40:11.000Z,278.85
2022-12-25T02:42:18.000Z,278.83
2022-12-25T02:43:44.000Z,278.86
2022-12-25T02:45:50.000Z,278.88
2022-12-25T02:47:17.000Z,278.9
2022-12-25T02:49:23.000Z,278.92
2022-12-25T02:50:50.000Z,278.94
2022-12-25T02:52:56.000Z,278.92
2022-12-25T02:54:22.000Z,278.94
2022-12-25T02:56:29.000Z,279.01
2022-12-25T02:57:55.000Z,279.02
2022-12-25T03:00:01.000Z,279.06
2022-12-25T03:01:28.000Z,279.08
2022-12-25T03:03:34.000Z,279.13
2022-12-25T03:05:01.000Z,279.12
2022-12-25T03:07:07.000Z,279.12
2022-12-25T03:08:33.000Z,279.12
2022-12-25T03:10:39.000Z,279.12
2022-12-25T03:13:31.000Z,279.12
2022-12-25T03:14:57.000Z,279.12
2022-12-25T03:17:03.000Z,279.12
2022-12-25T03:18:30.000Z,279.13
2022-12-25T03:20:36.000Z,279.15
2022-12-25T03:22:02.000Z,279.17
2022-12-25T03:24:09.000Z,279.17
2022-12-25T03:25:35.000Z,279.19
2022-12-25T03:27:41.000Z,279.22
2022-12-25T03:29:08.000Z,279.19
2022-12-25T03:31:14.000Z,279.22
2022-12-25T03:32:40.000Z,279.23
2022-12-25T03:34:47.000Z,279.22
2022-12-25T03:36:13.000Z,279.23
2022-12-25T03:38:19.000Z,279.28
2022-12-25T03:39:46.000Z,279.28
2022-12-25T03:41:52.000Z,279.3
2022-12-25T03:43:18.000Z,279.3
2022-12-25T03:45:24.000Z,279.34
2022-12-25T03:46:51.000Z,279.37
2022-12-25T03:48:57.000Z,279.41
2022-12-25T03:51:49.000Z,279.38
2022-12-25T03:53:15.000Z,279.41
2022-12-25T03:55:21.000Z,279.41
2022-12-25T03:56:48.000Z,279.4
2022-12-25T03:58:54.000Z,279.4
2022-12-25T04:00:20.000Z,279.4
2022-12-25T04:02:26.000Z,279.38
2022-12-25T04:03:53.000Z,279.37
2022-12-25T04:05:59.000Z,279.38
2022-12-25T04:07:26.000Z,279.35
2022-12-25T04:09:32.000Z,279.37
2022-12-25T04:10:58.000Z,279.37
2022-12-25T04:13:04.000Z,279.35
2022-12-25T04:14:31.000Z,279.37
2022-12-25T04:16:37.000Z,279.4
2022-12-25T04:18:04.000Z,279.42
2022-12-25T04:20:10.000Z,279.42
2022-12-25T04:21:36.000Z,279.45
2022-12-25T04:23:42.000Z,279.48
2022-12-25T04:25:09.000Z,279.51
2022-12-25T04:27:15.000Z,279.51
2022-12-25T04:30:06.000Z,279.52
2022-12-25T04:31:33.000Z,279.51
2022-12-25T04:33:39.000Z,279.51
2022-12-25T04:35:06.000Z,279.48
2022-12-25T04:37:12.000Z,279.48
2022-12-25T04:38:38.000Z,279.47
2022-12-25T04:40:44.000Z,279.48
2022-12-25T04:42:11.000Z,279.47
2022-12-25T04:44:17.000Z,279.47
2022-12-25T04:45:43.000Z,279.47
2022-12-25T04:47:50.000Z,279.48
2022-12-25T04:49:16.000Z,279.47
2022-12-25T04:51:22.000Z,279.47
2022-12-25T04:52:49.000Z,279.45
2022-12-25T04:54:55.000Z,279.44
2022-12-25T04:56:21.000Z,279.44
2022-12-25T04:58:28.000Z,279.45
2022-12-25T04:59:54.000Z,279.45
2022-12-25T05:02:00.000Z,279.48
2022-12-25T05:03:27.000Z,279.49
2022-12-25T05:05:33.000Z,279.49
2022-12-25T05:08:24.000Z,279.56
2022-12-25T05:09:50.000Z,279.6
2022-12-25T05:11:56.000Z,279.6
2022-12-25T05:13:23.000Z,279.65
2022-12-25T05:15:29.000Z,279.66
2022-12-25T05:16:56.000Z,279.69
2022-12-25T05:19:02.000Z,279.67
2022-12-25T05:20:28.000Z,279.72
2022-12-25T05:22:39.000Z,279.76
2022-12-25T05:24:05.000Z,279.8
2022-12-25T05:26:11.000Z,279.82
2022-12-25T05:27:38.000Z,279.85
2022-12-25T05:29:44.000Z,279.86
2022-12-25T05:31:11.000Z,279.89
2022-12-25T05:33:17.000Z,279.91
2022-12-25T05:34:43.000Z,279.93
2022-12-25T05:36:49.000Z,279.95
2022-12-25T05:38:16.000Z,279.96
2022-12-25T05:40:22.000Z,279.99
2022-12-25T05:41:49.000Z,279.99
2022-12-25T05:43:55.000Z,279.99
2022-12-25T05:46:46.000Z,280.02
2022-12-25T05:48:13.000Z,280.03
2022-12-25T05:50:19.000Z,280.03
2022-12-25T05:51:45.000Z,280.05
2022-12-25T05:53:51.000Z,280.05
2022-12-25T05:55:18.000Z,280.06
2022-12-25T05:57:24.000Z,280.05
2022-12-25T05:58:51.000Z,280.05
2022-12-25T06:00:57.000Z,280.05
2022-12-25T06:02:23.000Z,280.03
2022-12-25T06:04:29.000Z,280.02
2022-12-25T06:05:56.000Z,280.03
2022-12-25T06:08:02.000Z,280.02
2022-12-25T06:09:29.000Z,280.02
2022-12-25T06:11:35.000Z,280
2022-12-25T06:13:01.000Z,279.99
2022-12-25T06:15:07.000Z,279.99
2022-12-25T06:16:34.000Z,279.98
2022-12-25T06:18:44.000Z,279.98
2022-12-25T06:20:11.000Z,279.95
2022-12-25T06:22:17.000Z,279.96
2022-12-25T06:25:08.000Z,279.95
2022-12-25T06:26:35.000Z,279.93
2022-12-25T06:28:41.000Z,279.93
2022-12-25T06:30:07.000Z,279.92
2022-12-25T06:32:13.000Z,279.89
2022-12-25T06:33:40.000Z,279.91
2022-12-25T06:35:46.000Z,279.92
2022-12-25T06:37:12.000Z,279.89
2022-12-25T06:39:19.000Z,279.92
2022-12-25T06:40:45.000Z,279.89
2022-12-25T06:42:51.000Z,279.89
2022-12-25T06:44:18.000Z,279.88
2022-12-25T06:46:24.000Z,279.85
2022-12-25T06:47:51.000Z,279.85
2022-12-25T06:49:57.000Z,279.85
2022-12-25T06:51:23.000Z,279.84
2022-12-25T06:53:29.000Z,279.84
2022-12-25T06:55:03.000Z,279.84
2022-12-25T06:57:09.000Z,279.84
2022-12-25T06:58:36.000Z,279.85
2022-12-25T07:00:42.000Z,279.86
2022-12-25T07:03:33.000Z,279.85
2022-12-25T07:05:00.000Z,279.85
2022-12-25T07:07:06.000Z,279.85
2022-12-25T07:08:35.000Z,279.88
2022-12-25T07:10:42.000Z,279.91
2022-12-25T07:12:08.000Z,279.92
2022-12-25T07:14:14.000Z,279.92
2022-12-25T07:15:49.000Z,279.91
2022-12-25T07:17:55.000Z,279.91
2022-12-25T07:19:22.000Z,279.91
2022-12-25T07:21:28.000Z,279.89
2022-12-25T07:22:54.000Z,279.89
2022-12-25T07:25:00.000Z,279.89
2022-12-25T07:26:27.000Z,279.89
2022-12-25T07:28:33.000Z,279.89
2022-12-25T07:29:59.000Z,279.89
2022-12-25T07:32:06.000Z,279.89
2022-12-25T07:33:32.000Z,279.91
2022-12-25T07:35:39.000Z,279.91
2022-12-25T07:37:05.000Z,279.89
2022-12-25T07:39:11.000Z,279.89
2022-12-25T07:42:02.000Z,279.85
2022-12-25T07:43:29.000Z,279.85
2022-12-25T07:45:35.000Z,279.85
2022-12-25T07:47:02.000Z,279.85
2022-12-25T07:49:08.000Z,279.85
2022-12-25T07:50:34.000Z,279.86
2022-12-25T07:52:41.000Z,279.85
2022-12-25T07:54:10.000Z,279.88
2022-12-25T07:56:16.000Z,279.88
2022-12-25T07:57:43.000Z,279.91
2022-12-25T07:59:49.000Z,279.92
2022-12-25T08:01:15.000Z,279.95
2022-12-25T08:03:21.000Z,279.98
2022-12-25T08:04:48.000Z,279.99
2022-12-25T08:06:55.000Z,279.99
2022-12-25T08:08:21.000Z,279.99
2022-12-25T08:10:27.000Z,279.99
2022-12-25T08:11:54.000Z,279.99
2022-12-25T08:14:00.000Z,280
2022-12-25T08:15:27.000Z,280.02
2022-12-25T08:17:33.000Z,280.03
2022-12-25T08:20:23.000Z,280.06
2022-12-25T08:21:50.000Z,280.09
2022-12-25T08:23:56.000Z,280.12
2022-12-25T08:25:23.000Z,280.14
2022-12-25T08:27:29.000Z,280.16
2022-12-25T08:28:55.000Z,280.16
2022-12-25T08:31:01.000Z,280.18
2022-12-25T08:32:28.000Z,280.23
2022-12-25T08:34:34.000Z,280.24
2022-12-25T08:36:01.000Z,280.28
2022-12-25T08:38:07.000Z,280.32
2022-12-25T08:39:33.000Z,280.35
2022-12-25T08:41:39.000Z,280.4
2022-12-25T08:43:06.000Z,280.43
2022-12-25T08:45:12.000Z,280.46
2022-12-25T08:46:38.000Z,280.46
2022-12-25T08:48:45.000Z,280.47
2022-12-25T08:50:11.000Z,280.49
2022-12-25T08:52:18.000Z,280.5
2022-12-25T08:53:44.000Z,280.53
2022-12-25T08:55:50.000Z,280.51
2022-12-25T08:58:42.000Z,280.56
2022-12-25T09:00:08.000Z,280.57
2022-12-25T09:02:14.000Z,280.57
2022-12-25T09:03:41.000Z,280.57
2022-12-25T09:05:48.000Z,280.61
2022-12-25T09:07:14.000Z,280.61
2022-12-25T09:09:20.000Z,280.62
2022-12-25T09:10:47.000Z,280.64
2022-12-25T09:12:53.000Z,280.64
2022-12-25T09:14:19.000Z,280.65
2022-12-25T09:16:25.000Z,280.69
2022-12-25T09:17:52.000Z,280.73
2022-12-25T09:19:58.000Z,280.78
2022-12-25T09:21:25.000Z,280.8
2022-12-25T09:23:31.000Z,280.84
2022-12-25T09:24:57.000Z,280.86
2022-12-25T09:27:03.000Z,280.87
2022-12-25T09:28:30.000Z,280.87
2022-12-25T09:30:36.000Z,280.9
2022-12-25T09:32:03.000Z,280.94
2022-12-25T09:34:09.000Z,281
2022-12-25T09:37:07.000Z,281.11
2022-12-25T09:38:34.000Z,281.16
2022-12-25T09:40:40.000Z,281.21
2022-12-25T09:42:07.000Z,281.23
2022-12-25T09:44:13.000Z,281.26
2022-12-25T09:45:39.000Z,281.3
2022-12-25T09:47:46.000Z,281.3
2022-12-25T09:49:12.000Z,281.29
2022-12-25T09:51:18.000Z,281.3
2022-12-25T09:52:45.000Z,281.28
2022-12-25T09:54:51.000Z,281.28
2022-12-25T09:56:17.000Z,281.26
2022-12-25T09:58:23.000Z,281.28
2022-12-25T09:59:50.000Z,281.32
2022-12-25T10:01:56.000Z,281.29
2022-12-25T10:03:23.000Z,281.3
2022-12-25T10:05:29.000Z,281.3
2022-12-25T10:06:56.000Z,281.3
2022-12-25T10:09:02.000Z,281.33
2022-12-25T10:10:28.000Z,281.33
2022-12-25T10:12:35.000Z,281.35
2022-12-25T10:15:26.000Z,281.37
2022-12-25T10:16:52.000Z,281.39
2022-12-25T10:18:59.000Z,281.39
2022-12-25T10:20:25.000Z,281.42
2022-12-25T10:22:31.000Z,281.43
2022-12-25T10:23:58.000Z,281.45
2022-12-25T10:26:04.000Z,281.43
2022-12-25T10:27:30.000Z,281.43
2022-12-25T10:29:36.000Z,281.42
2022-12-25T10:31:03.000Z,281.39
2022-12-25T10:33:09.000Z,281.39
2022-12-25T10:34:43.000Z,281.37
2022-12-25T10:36:49.000Z,281.39
2022-12-25T10:38:15.000Z,281.37
2022-12-25T10:40:21.000Z,281.39
2022-12-25T10:41:48.000Z,281.42
2022-12-25T10:43:54.000Z,281.43
2022-12-25T10:45:21.000Z,281.47
2022-12-25T10:47:27.000Z,281.48
2022-12-25T10:48:53.000Z,281.48
2022-12-25T10:51:00.000Z,281.51
2022-12-25T10:53:51.000Z,281.51
2022-12-25T10:55:18.000Z,281.52
2022-12-25T10:57:29.000Z,281.55
2022-12-25T10:58:56.000Z,281.55
2022-12-25T11:01:02.000Z,281.55
2022-12-25T11:02:28.000Z,281.56
2022-12-25T11:04:35.000Z,281.56
2022-12-25T11:06:01.000Z,281.58
2022-12-25T11:08:08.000Z,281.58
2022-12-25T11:09:34.000Z,281.59
2022-12-25T11:11:40.000Z,281.63
2022-12-25T11:13:07.000Z,281.65
2022-12-25T11:15:13.000Z,281.68
2022-12-25T11:16:40.000Z,281.68
2022-12-25T11:18:46.000Z,281.66
2022-12-25T11:20:12.000Z,281.65
2022-12-25T11:22:19.000Z,281.65
2022-12-25T11:23:45.000Z,281.62
2022-12-25T11:25:51.000Z,281.61
2022-12-25T11:27:18.000Z,281.61
2022-12-25T11:29:24.000Z,281.61
2022-12-25T11:32:15.000Z,281.56
2022-12-25T11:33:42.000Z,281.55
2022-12-25T11:35:48.000Z,281.52
2022-12-25T11:37:14.000Z,281.51
2022-12-25T11:39:20.000Z,281.51
2022-12-25T11:40:47.000Z,281.51
2022-12-25T11:42:53.000Z,281.52
2022-12-25T11:44:20.000Z,281.51
2022-12-25T11:46:26.000Z,281.52
2022-12-25T11:47:52.000Z,281.54
2022-12-25T11:49:58.000Z,281.55
2022-12-25T11:51:27.000Z,281.56
2022-12-25T11:53:33.000Z,281.61
2022-12-25T11:55:00.000Z,281.63
2022-12-25T11:57:06.000Z,281.65
2022-12-25T11:58:33.000Z,281.65
2022-12-25T12:00:39.000Z,281.66
2022-12-25T12:02:05.000Z,281.69
2022-12-25T12:04:12.000Z,281.7
2022-12-25T12:05:38.000Z,281.72
2022-12-25T12:07:44.000Z,281.72
2022-12-25T12:10:36.000Z,281.7
2022-12-25T12:12:02.000Z,281.7
2022-12-25T12:14:08.000Z,281.72
2022-12-25T12:15:35.000Z,281.69
2022-12-25T12:17:41.000Z,281.69
2022-12-25T12:19:07.000Z,281.66
2022-12-25T12:21:14.000Z,281.68
2022-12-25T12:22:40.000Z,281.66
2022-12-25T12:24:47.000Z,281.65
2022-12-25T12:26:13.000Z,281.65
2022-12-25T12:28:19.000Z,281.65
2022-12-25T12:29:46.000Z,281.65
2022-12-25T12:31:52.000Z,281.63
2022-12-25T12:33:18.000Z,281.65
2022-12-25T12:35:24.000Z,281.66
2022-12-25T12:36:51.000Z,281.66
2022-12-25T12:38:57.000Z,281.66
2022-12-25T12:40:24.000Z,281.65
2022-12-25T12:42:30.000Z,281.66
2022-12-25T12:43:56.000Z,281.68
2022-12-25T12:46:03.000Z,281.7
2022-12-25T12:48:54.000Z,281.72
2022-12-25T12:50:20.000Z,281.73
2022-12-25T12:52:26.000Z,281.75
2022-12-25T12:53:53.000Z,281.79
2022-12-25T12:55:59.000Z,281.79
2022-12-25T12:57:25.000Z,281.81
2022-12-25T12:59:32.000Z,281.82
2022-12-25T13:00:58.000Z,281.81
2022-12-25T13:03:04.000Z,281.79
2022-12-25T13:04:31.000Z,281.82
2022-12-25T13:06:37.000Z,281.82
2022-12-25T13:08:04.000Z,281.84
2022-12-25T13:10:10.000Z,281.84
2022-12-25T13:11:36.000Z,281.84
2022-12-25T13:13:43.000Z,281.85
2022-12-25T13:15:09.000Z,281.84
2022-12-25T13:17:15.000Z,281.84
2022-12-25T13:18:42.000Z,281.84
2022-12-25T13:20:48.000Z,281.85
2022-12-25T13:22:14.000Z,281.87
2022-12-25T13:24:20.000Z,281.85
2022-12-25T13:27:12.000Z,281.87
2022-12-25T13:28:38.000Z,281.87
2022-12-25T13:30:45.000Z,281.87
2022-12-25T13:32:12.000Z,281.87
2022-12-25T13:34:18.000Z,281.88
2022-12-25T13:35:45.000Z,281.89
2022-12-25T13:37:51.000Z,281.89
2022-12-25T13:39:17.000Z,281.91
2022-12-25T13:41:23.000Z,281.92
2022-12-25T13:42:50.000Z,281.91
2022-12-25T13:44:56.000Z,281.89
2022-12-25T13:46:22.000Z,281.88
2022-12-25T13:48:29.000Z,281.89
2022-12-25T13:49:55.000Z,281.87
2022-12-25T13:52:01.000Z,281.87
2022-12-25T13:53:28.000Z,281.87
2022-12-25T13:55:34.000Z,281.85
2022-12-25T13:57:00.000Z,281.87
2022-12-25T13:59:07.000Z,281.88
2022-12-25T14:00:33.000Z,281.92
2022-12-25T14:02:39.000Z,281.92
2022-12-25T14:05:30.000Z,281.89
2022-12-25T14:07:05.000Z,281.92
2022-12-25T14:09:12.000Z,281.92
2022-12-25T14:10:38.000Z,281.94
2022-12-25T14:12:44.000Z,281.96
2022-12-25T14:14:11.000Z,281.96
2022-12-25T14:16:17.000Z,281.96
2022-12-25T14:17:43.000Z,281.94
2022-12-25T14:19:49.000Z,281.91
2022-12-25T14:21:16.000Z,281.91
2022-12-25T14:23:22.000Z,281.91
2022-12-25T14:24:49.000Z,281.89
2022-12-25T14:26:55.000Z,281.87
2022-12-25T14:28:21.000Z,281.84
2022-12-25T14:30:28.000Z,281.84
2022-12-25T14:31:54.000Z,281.82
2022-12-25T14:34:00.000Z,281.79
2022-12-25T14:35:27.000Z,281.77
2022-12-25T14:37:33.000Z,281.76
2022-12-25T14:39:00.000Z,281.72
2022-12-25T14:41:06.000Z,281.73
2022-12-25T14:43:57.000Z,281.75
2022-12-25T14:45:24.000Z,281.73
2022-12-25T14:47:30.000Z,281.72
2022-12-25T14:48:57.000Z,281.72
2022-12-25T14:51:03.000Z,281.7
2022-12-25T14:52:29.000Z,281.7
2022-12-25T14:54:35.000Z,281.69
2022-12-25T14:56:02.000Z,281.66
2022-12-25T14:58:08.000Z,281.65
2022-12-25T14:59:35.000Z,281.63
2022-12-25T15:01:41.000Z,281.63
2022-12-25T15:03:07.000Z,281.62
2022-12-25T15:05:14.000Z,281.62
2022-12-25T15:06:41.000Z,281.62
2022-12-25T15:08:47.000Z,281.61
2022-12-25T15:10:13.000Z,281.61
2022-12-25T15:13:03.000Z,281.59
2022-12-25T15:14:30.000Z,281.59
2022-12-25T15:16:36.000Z,281.59
2022-12-25T15:18:03.000Z,281.58
2022-12-25T15:20:09.000Z,281.59
2022-12-25T15:23:00.000Z,281.59
2022-12-25T15:24:46.000Z,281.56
2022-12-25T15:26:52.000Z,281.55
2022-12-25T15:28:18.000Z,281.54
2022-12-25T15:30:24.000Z,281.54
2022-12-25T15:31:51.000Z,281.51
2022-12-25T15:33:57.000Z,281.51
2022-12-25T15:35:24.000Z,281.52
2022-12-25T15:37:30.000Z,281.52
2022-12-25T15:38:56.000Z,281.51
2022-12-25T15:41:02.000Z,281.51
2022-12-25T15:42:29.000Z,281.51
2022-12-25T15:44:36.000Z,281.49
2022-12-25T15:46:03.000Z,281.49
2022-12-25T15:48:09.000Z,281.48
2022-12-25T15:49:35.000Z,281.48
2022-12-25T15:51:42.000Z,281.47
2022-12-25T15:53:08.000Z,281.47
2022-12-25T15:55:14.000Z,281.47
2022-12-25T15:56:41.000Z,281.48
2022-12-25T15:58:47.000Z,281.48
2022-12-25T16:01:38.000Z,281.52
2022-12-25T16:03:05.000Z,281.51
2022-12-25T16:05:11.000Z,281.49
2022-12-25T16:06:38.000Z,281.48
2022-12-25T16:08:44.000Z,281.47
2022-12-25T16:10:11.000Z,281.48
2022-12-25T16:12:17.000Z,281.47
2022-12-25T16:13:43.000Z,281.48
2022-12-25T16:15:50.000Z,281.48
2022-12-25T16:17:16.000Z,281.51
2022-12-25T16:19:23.000Z,281.52
2022-12-25T16:20:49.000Z,281.56
2022-12-25T16:22:55.000Z,281.58
2022-12-25T16:24:22.000Z,281.59
2022-12-25T16:26:28.000Z,281.58
2022-12-25T16:27:54.000Z,281.59
2022-12-25T16:30:00.000Z,281.61
2022-12-25T16:31:27.000Z,281.62
2022-12-25T16:33:33.000Z,281.62
2022-12-25T16:35:00.000Z,281.65
2022-12-25T16:37:06.000Z,281.65
2022-12-25T16:39:57.000Z,281.61
2022-12-25T16:41:23.000Z,281.58
2022-12-25T16:43:29.000Z,281.58
2022-12-25T16:44:56.000Z,281.55
2022-12-25T16:47:02.000Z,281.52
2022-12-25T16:48:29.000Z,281.49
2022-12-25T16:50:35.000Z,281.47
2022-12-25T16:52:01.000Z,281.51
2022-12-25T16:54:07.000Z,281.52
2022-12-25T16:55:34.000Z,281.48
2022-12-25T16:57:40.000Z,281.48
2022-12-25T16:59:07.000Z,281.45
2022-12-25T17:01:13.000Z,281.43
2022-12-25T17:02:40.000Z,281.42
2022-12-25T17:04:46.000Z,281.43
2022-12-25T17:06:13.000Z,281.42
2022-12-25T17:08:19.000Z,281.45
2022-12-25T17:09:45.000Z,281.47
2022-12-25T17:11:51.000Z,281.45
2022-12-25T17:13:18.000Z,281.45
2022-12-25T17:15:24.000Z,281.47
2022-12-25T17:18:15.000Z,281.47
2022-12-25T17:19:42.000Z,281.48
2022-12-25T17:21:48.000Z,281.49
2022-12-25T17:23:14.000Z,281.51
2022-12-25T17:25:20.000Z,281.51
2022-12-25T17:26:47.000Z,281.51
2022-12-25T17:28:53.000Z,281.51
2022-12-25T17:30:19.000Z,281.48
2022-12-25T17:32:25.000Z,281.49
2022-12-25T17:33:52.000Z,281.54
2022-12-25T17:35:58.000Z,281.52
2022-12-25T17:37:30.000Z,281.49
2022-12-25T17:39:36.000Z,281.48
2022-12-25T17:41:02.000Z,281.47
2022-12-25T17:43:09.000Z,281.45
2022-12-25T17:44:35.000Z,281.51
2022-12-25T17:46:41.000Z,281.49
2022-12-25T17:48:08.000Z,281.51
2022-12-25T17:50:14.000Z,281.49
2022-12-25T17:51:41.000Z,281.49
2022-12-25T17:53:47.000Z,281.47
2022-12-25T17:56:38.000Z,281.48
2022-12-25T17:58:05.000Z,281.48
2022-12-25T18:00:11.000Z,281.48
2022-12-25T18:01:38.000Z,281.48
2022-12-25T18:03:44.000Z,281.48
2022-12-25T18:05:11.000Z,281.48
2022-12-25T18:07:17.000Z,281.48
2022-12-25T18:08:43.000Z,281.47
2022-12-25T18:10:49.000Z,281.51
2022-12-25T18:12:16.000Z,281.52
2022-12-25T18:14:22.000Z,281.52
2022-12-25T18:15:48.000Z,281.52
2022-12-25T18:17:55.000Z,281.52
2022-12-25T18:19:21.000Z,281.51
2022-12-25T18:21:27.000Z,281.51
2022-12-25T18:22:54.000Z,281.48
2022-12-25T18:25:00.000Z,281.51
2022-12-25T18:26:26.000Z,281.49
2022-12-25T18:28:33.000Z,281.51
2022-12-25T18:29:59.000Z,281.54
2022-12-25T18:32:05.000Z,281.52
2022-12-25T18:34:57.000Z,281.52
2022-12-25T18:36:23.000Z,281.49
2022-12-25T18:38:29.000Z,281.48
2022-12-25T18:39:56.000Z,281.47
2022-12-25T18:42:02.000Z,281.47
2022-12-25T18:43:28.000Z,281.47
2022-12-25T18:46:01.000Z,281.48
2022-12-25T18:47:27.000Z,281.48
2022-12-25T18:49:33.000Z,281.49
2022-12-25T18:51:00.000Z,281.52
2022-12-25T18:53:06.000Z,281.51
2022-12-25T18:54:33.000Z,281.52
2022-12-25T18:56:39.000Z,281.52
2022-12-25T18:58:05.000Z,281.56
2022-12-25T19:00:11.000Z,281.58
2022-12-25T19:01:38.000Z,281.62
2022-12-25T19:03:44.000Z,281.63
2022-12-25T19:05:11.000Z,281.62
2022-12-25T19:07:17.000Z,281.63
2022-12-25T19:08:43.000Z,281.63
2022-12-25T19:10:49.000Z,281.65
2022-12-25T19:13:41.000Z,281.65
2022-12-25T19:15:07.000Z,281.66
2022-12-25T19:17:13.000Z,281.69
2022-12-25T19:18:40.000Z,281.7
2022-12-25T19:20:46.000Z,281.7
2022-12-25T19:22:12.000Z,281.69
2022-12-25T19:24:19.000Z,281.69
2022-12-25T19:25:45.000Z,281.7
2022-12-25T19:27:51.000Z,281.73
2022-12-25T19:29:18.000Z,281.72
2022-12-25T19:31:24.000Z,281.75
2022-12-25T19:32:50.000Z,281.75
2022-12-25T19:34:56.000Z,281.77
2022-12-25T19:36:23.000Z,281.81
2022-12-25T19:38:29.000Z,281.82
2022-12-25T19:39:56.000Z,281.85
2022-12-25T19:42:02.000Z,281.87
2022-12-25T19:43:28.000Z,281.89
2022-12-25T19:45:34.000Z,281.89
2022-12-25T19:47:01.000Z,281.88
2022-12-25T19:49:07.000Z,281.88
2022-12-25T19:51:58.000Z,281.89
2022-12-25T19:53:25.000Z,281.91
2022-12-25T19:55:31.000Z,281.88
2022-12-25T19:56:57.000Z,281.88
2022-12-25T19:59:03.000Z,281.92
2022-12-25T20:00:30.000Z,281.95
2022-12-25T20:02:36.000Z,281.95
2022-12-25T20:04:03.000Z,281.91
2022-12-25T20:06:09.000Z,281.91
2022-12-25T20:07:36.000Z,281.95
2022-12-25T20:09:43.000Z,281.95
2022-12-25T20:11:09.000Z,282.01
2022-12-25T20:13:15.000Z,281.99
2022-12-25T20:14:42.000Z,282.02
2022-12-25T20:16:48.000Z,282.09
2022-12-25T20:18:14.000Z,282.1
2022-12-25T20:20:21.000Z,282.09
2022-12-25T20:21:47.000Z,282.08
2022-12-25T20:23:53.000Z,282.06
2022-12-25T20:25:20.000Z,282.08
2022-12-25T20:27:26.000Z,282.05
2022-12-25T20:30:17.000Z,282.06
2022-12-25T20:31:43.000Z,282.06
2022-12-25T20:33:50.000Z,282.08
2022-12-25T20:35:16.000Z,282.1
2022-12-25T20:37:22.000Z,282.13
2022-12-25T20:38:49.000Z,282.12
2022-12-25T20:40:55.000Z,282.13
2022-12-25T20:42:53.000Z,282.14
2022-12-25T20:44:59.000Z,282.16
2022-12-25T20:46:26.000Z,282.16
2022-12-25T20:48:32.000Z,282.14
2022-12-25T20:49:59.000Z,282.17
2022-12-25T20:52:05.000Z,282.17
2022-12-25T20:53:32.000Z,282.19
2022-12-25T20:55:38.000Z,282.19
2022-12-25T20:57:05.000Z,282.2
2022-12-25T20:59:11.000Z,282.21
2022-12-25T21:00:37.000Z,282.2
2022-12-25T21:02:43.000Z,282.19
2022-12-25T21:04:10.000Z,282.19
2022-12-25T21:06:22.000Z,282.3
2022-12-25T21:09:13.000Z,282.31
2022-12-25T21:10:40.000Z,282.34
2022-12-25T21:12:46.000Z,282.36
2022-12-25T21:14:12.000Z,282.43
2022-12-25T21:16:18.000Z,282.45
2022-12-25T21:17:45.000Z,282.53
2022-12-25T21:19:51.000Z,282.54
2022-12-25T21:21:18.000Z,282.57
2022-12-25T21:23:24.000Z,282.63
2022-12-25T21:24:50.000Z,282.63
2022-12-25T21:26:56.000Z,282.63
2022-12-25T21:28:23.000Z,282.68
2022-12-25T21:30:29.000Z,282.67
2022-12-25T21:31:56.000Z,282.64
2022-12-25T21:34:02.000Z,282.7
2022-12-25T21:35:29.000Z,282.68
2022-12-25T21:37:35.000Z,282.67
2022-12-25T21:39:01.000Z,282.68
2022-12-25T21:41:07.000Z,282.7
2022-12-25T21:42:34.000Z,282.68
2022-12-25T21:44:40.000Z,282.74
2022-12-25T21:47:31.000Z,282.73
2022-12-25T21:49:29.000Z,282.73
2022-12-25T21:51:35.000Z,282.73
2022-12-25T21:53:01.000Z,282.7
2022-12-25T21:55:07.000Z,282.73
2022-12-25T21:56:34.000Z,282.7
2022-12-25T21:58:49.000Z,282.67
2022-12-25T22:00:15.000Z,282.71
2022-12-25T22:02:21.000Z,282.7
2022-12-25T22:03:48.000Z,282.71
2022-12-25T22:05:55.000Z,282.7
2022-12-25T22:07:21.000Z,282.7
2022-12-25T22:09:27.000Z,282.7
2022-12-25T22:10:54.000Z,282.74
2022-12-25T22:13:00.000Z,282.71
2022-12-25T22:14:27.000Z,282.74
2022-12-25T22:16:59.000Z,282.7
2022-12-25T22:18:26.000Z,282.71
2022-12-25T22:20:32.000Z,282.73
2022-12-25T22:21:58.000Z,282.75
2022-12-25T22:24:04.000Z,282.77
2022-12-25T22:26:56.000Z,282.74
2022-12-25T22:28:22.000Z,282.77
2022-12-25T22:30:28.000Z,282.77
2022-12-25T22:31:55.000Z,282.74
2022-12-25T22:34:01.000Z,282.77
2022-12-25T22:35:28.000Z,282.81
2022-12-25T22:37:34.000Z,282.79
2022-12-25T22:39:00.000Z,282.78
2022-12-25T22:41:07.000Z,282.78
2022-12-25T22:42:33.000Z,282.77
2022-12-25T22:44:39.000Z,282.81
2022-12-25T22:46:06.000Z,282.78
2022-12-25T22:48:12.000Z,282.77
2022-12-25T22:49:39.000Z,282.77
2022-12-25T22:51:45.000Z,282.77
2022-12-25T22:53:11.000Z,282.74